Ashridge Duathlon National Championships
26 Jan 2019

     

Page 1 of 4 (200 items)
FavPosRace NoNameTimeCategoryCat PosGenderGen PosClubRun 1T1BikeT2Run 2
1178Ben Price02:03:23M35-391Male1Kinetic-One Wheels00:32:0600:00:3001:13:2800:00:3200:16:45
2123Daniel Jenkin02:05:42M30-341Male2RedVenom.co.uk00:32:3500:00:4801:14:2700:00:2700:17:22
3257Alex Doherty02:08:01M35-392Male3Goode2swim00:34:2800:00:3401:14:1700:00:3100:18:10
472James Ellis02:08:34M25-291Male4TORQ Performance Tri Team00:33:5600:00:2801:16:1700:00:3400:17:17
591John Hale02:09:29M30-342Male5BTF Individual Member00:37:0800:00:4701:12:3800:00:3400:18:20
642James Coleman02:10:24M30-343Male600:36:1900:00:3001:14:3900:00:3500:18:19
774Tom Foster02:11:06M30-344Male7Team Cranc00:33:2300:00:3701:19:0000:00:4200:17:23
847Paul Corney02:11:31M35-393Male8Hillingdon Triathletes00:35:0000:00:3001:17:1700:00:3200:18:10
9238JOSH WALKER02:11:48M30-345Male9CRYSTAL PALACE TRIATHLETES00:34:5900:00:5001:16:0400:00:4500:19:08
1024Matthew Brooke02:13:07M30-346Male10Precision Race Team00:35:3900:00:3601:18:2200:00:3400:17:55
11120Owen James02:14:09M40-441Male1100:35:3200:00:3801:19:1300:00:3400:18:09
12164Chris Nicoll02:14:12M50-541Male12Derby Triathlon club00:35:4100:00:3601:19:2200:00:3000:18:00
1390andy haigh02:14:31M30-347Male13Clapham Chasers00:38:0000:00:5701:15:4600:00:5000:18:55
14156Iain Mclaughlin02:14:42M35-394Male14Giant Leamington Spa00:37:0400:00:3401:17:1700:00:2600:19:18
15203Jonathon Seymour02:14:46M35-395Male15GOG Triathlon Club00:36:4900:00:3701:17:3700:00:4000:19:01
1671Philip Eaves02:14:57M35-396Male1600:37:5800:00:3101:16:2200:00:3900:19:26
17225Daniel Taylor02:15:00M30-348Male17Royal Navy Triathlon00:36:5800:00:4001:17:2900:00:3700:19:15
1895Simon Hall02:15:13M35-397Male1800:35:3600:00:5401:19:2400:00:4100:18:36
19110Stuart Holloway02:15:43M35-398Male19Salisbury Tri Club00:33:3600:01:4501:22:2000:00:5100:17:09
20126Jake Keast02:16:09M20-241Male20Exeter University Triathlon Club00:36:2000:00:4901:19:4200:00:3900:18:36
21150Alvaro Martin Hernandez02:16:35M35-399Male21West Lothian Tri00:36:5700:00:4601:17:2800:00:4600:20:36
22183Jonathan Read02:16:43M30-349Male22Velo Karbona00:35:2800:00:4601:20:5300:00:3800:18:56
231Steve Abbott02:16:59M40-442Male23Hoppers Rollers00:36:5600:00:4601:17:4200:00:3900:20:54
2425Alister Brown02:17:03M25-292Male24Tri Energy00:36:3800:00:3301:20:0200:00:3200:19:16
25266Tim Smales02:17:23M35-3910Male25Winchester and District A.C.00:36:2800:00:3601:19:5000:00:3600:19:51
26210Richard Singleton02:18:03M40-443Male26VICEROYS TRIATHLON CLUB00:36:0800:00:4101:21:3400:00:3600:19:01
27240James Warren02:18:08M30-3410Male2700:38:1000:00:2301:19:3600:00:2500:19:33
28171Daniel pebody02:18:27M40-444Male28Team cherwell 700:38:4400:00:5201:17:5400:00:2800:20:27
2983Chris Gibbins02:18:46M45-491Male29Harrogate Harriers00:36:4800:00:3301:22:2000:00:3400:18:29
30160Alex Milne02:18:50M35-3911Male30Ashford Tri Club00:37:5700:00:3801:21:1600:00:3200:18:25
31218Simon Stevens02:19:01M50-542Male31WINCHESTER & DISTRICT AC00:36:5900:00:4101:21:4500:00:4900:18:46
32141Alec Leslie02:19:04M35-3912Male32Team Tilly00:35:1400:01:1101:23:1800:00:5400:18:24
33206Luke Sherlock02:19:08M20-242Male33Team Bio-Synergy00:37:0400:00:5101:21:0800:00:4400:19:19
34131Matt Keogh02:19:11M25-293Male3400:36:0200:00:3201:23:4700:00:3400:18:14
3593Phil Hall02:19:13M45-492Male35Alnwick Tri00:40:2900:01:0001:15:2200:00:5100:21:29
36202clark schofield02:19:15M40-445Male36Hillingdon Triathletes00:38:4000:00:2201:19:5000:00:2700:19:55
37101Ben Hawkins02:19:23M20-243Male3700:36:4800:00:3601:22:0100:00:2600:19:30
3850James Cox02:19:49M45-493Male38FREEDOM TRI CROWBOROUGH00:37:4600:00:5701:21:2400:00:5000:18:50
39172Chris Penn02:20:07M40-446Male39LEIGHTON BUZZARD TRI00:40:1300:00:4401:16:5700:00:3300:21:39
40130victoria kenny02:20:09F20-241Female100:38:1900:00:4501:20:5500:00:4300:19:25
41188Riley Richardson02:20:54M20-244Male40ARMY TRIATHLON ASSOCIATION00:36:4500:00:2701:22:5500:00:3600:20:08
42224Chris Taylor02:21:29M40-447Male41Holmfirth Harriers00:38:3600:00:3801:20:1700:00:5100:21:04
43138Sean Leadbeater02:22:16M30-3411Male42North Bristol Tri Club00:36:1900:00:5901:25:3000:00:5300:18:33
44185Ian Reid02:22:27M50-543Male434t+ CycloPark00:38:4900:00:3601:21:4900:00:3800:20:33
4532Andy Caldwell02:22:31M40-448Male4400:39:2100:00:3301:21:5800:00:3800:20:00
46166Rob O'Loughlin02:22:54M25-294Male457Oaks Triathlon club00:37:5500:01:2401:23:3000:01:1600:18:46
47249Scott Williams02:23:47M30-3412Male46WEST SUFFOLK WHEELERS00:37:5300:00:4101:23:5200:00:4600:20:33
482Matthew Adcock02:24:01M50-544Male47Hillingdon Triathletes00:37:1200:00:5001:25:4200:00:4700:19:27
49241Jon Warren02:24:18M35-3913Male48HAVERING TRI CLUB00:38:2400:00:5801:24:2800:00:4600:19:40
50234Colin Turner02:24:27M50-545Male4900:37:2600:00:5201:26:0600:00:3200:19:30
Page 1 of 4 (200 items)
   

fb